sensor_id;sensor_type;location;lat;lon;timestamp;P1;durP1;ratioP1;P2;durP2;ratioP2
18146;SDS011;9199;48.832;9.182;2023-12-04T00:01:42;26.45;;;13.32;;
18146;SDS011;9199;48.832;9.182;2023-12-04T00:04:10;28.42;;;12.65;;
18146;SDS011;9199;48.832;9.182;2023-12-04T00:06:36;28.98;;;13.00;;
18146;SDS011;9199;48.832;9.182;2023-12-04T00:09:03;28.75;;;13.55;;
18146;SDS011;9199;48.832;9.182;2023-12-04T00:11:30;26.23;;;12.90;;
18146;SDS011;9199;48.832;9.182;2023-12-04T00:13:58;25.10;;;12.50;;
18146;SDS011;9199;48.832;9.182;2023-12-04T00:16:25;25.35;;;12.23;;
18146;SDS011;9199;48.832;9.182;2023-12-04T00:18:52;27.60;;;13.45;;
18146;SDS011;9199;48.832;9.182;2023-12-04T00:21:18;29.73;;;13.00;;
18146;SDS011;9199;48.832;9.182;2023-12-04T00:23:45;27.17;;;12.55;;
18146;SDS011;9199;48.832;9.182;2023-12-04T00:26:12;28.63;;;12.23;;
18146;SDS011;9199;48.832;9.182;2023-12-04T00:28:39;27.05;;;11.57;;
18146;SDS011;9199;48.832;9.182;2023-12-04T00:31:07;24.75;;;12.57;;
18146;SDS011;9199;48.832;9.182;2023-12-04T00:33:35;23.23;;;11.30;;
18146;SDS011;9199;48.832;9.182;2023-12-04T00:36:02;23.75;;;11.10;;
18146;SDS011;9199;48.832;9.182;2023-12-04T00:38:29;24.95;;;12.40;;
18146;SDS011;9199;48.832;9.182;2023-12-04T00:40:56;26.67;;;13.18;;
18146;SDS011;9199;48.832;9.182;2023-12-04T00:43:23;25.40;;;12.65;;
18146;SDS011;9199;48.832;9.182;2023-12-04T00:45:50;26.73;;;12.40;;
18146;SDS011;9199;48.832;9.182;2023-12-04T00:48:18;24.80;;;12.52;;
18146;SDS011;9199;48.832;9.182;2023-12-04T00:50:44;28.60;;;12.80;;
18146;SDS011;9199;48.832;9.182;2023-12-04T00:53:11;28.40;;;12.88;;
18146;SDS011;9199;48.832;9.182;2023-12-04T00:55:38;22.83;;;11.80;;
18146;SDS011;9199;48.832;9.182;2023-12-04T00:58:05;24.10;;;11.73;;
18146;SDS011;9199;48.832;9.182;2023-12-04T01:00:31;25.20;;;11.90;;
18146;SDS011;9199;48.832;9.182;2023-12-04T01:02:58;24.58;;;11.77;;
18146;SDS011;9199;48.832;9.182;2023-12-04T01:05:26;25.75;;;12.50;;
18146;SDS011;9199;48.832;9.182;2023-12-04T01:07:53;25.92;;;12.07;;
18146;SDS011;9199;48.832;9.182;2023-12-04T01:10:19;26.13;;;12.02;;
18146;SDS011;9199;48.832;9.182;2023-12-04T01:12:46;25.30;;;12.35;;
18146;SDS011;9199;48.832;9.182;2023-12-04T01:15:13;23.33;;;11.48;;
18146;SDS011;9199;48.832;9.182;2023-12-04T01:17:39;29.05;;;12.52;;
18146;SDS011;9199;48.832;9.182;2023-12-04T01:20:07;25.77;;;12.35;;
18146;SDS011;9199;48.832;9.182;2023-12-04T01:22:35;25.58;;;12.40;;
18146;SDS011;9199;48.832;9.182;2023-12-04T01:25:02;24.85;;;11.35;;
18146;SDS011;9199;48.832;9.182;2023-12-04T01:27:29;24.05;;;12.13;;
18146;SDS011;9199;48.832;9.182;2023-12-04T01:29:56;23.98;;;11.75;;
18146;SDS011;9199;48.832;9.182;2023-12-04T01:32:23;26.35;;;11.80;;
18146;SDS011;9199;48.832;9.182;2023-12-04T01:34:50;25.83;;;11.80;;
18146;SDS011;9199;48.832;9.182;2023-12-04T01:37:17;25.48;;;12.63;;
18146;SDS011;9199;48.832;9.182;2023-12-04T01:39:45;25.35;;;12.10;;
18146;SDS011;9199;48.832;9.182;2023-12-04T01:42:12;24.58;;;11.52;;
18146;SDS011;9199;48.832;9.182;2023-12-04T01:44:39;22.92;;;10.88;;
18146;SDS011;9199;48.832;9.182;2023-12-04T01:47:05;26.85;;;12.45;;
18146;SDS011;9199;48.832;9.182;2023-12-04T01:49:33;26.08;;;11.95;;
18146;SDS011;9199;48.832;9.182;2023-12-04T01:52:00;22.48;;;11.65;;
18146;SDS011;9199;48.832;9.182;2023-12-04T01:54:27;24.40;;;11.65;;
18146;SDS011;9199;48.832;9.182;2023-12-04T01:56:55;22.33;;;11.23;;
18146;SDS011;9199;48.832;9.182;2023-12-04T01:59:22;26.58;;;11.18;;
18146;SDS011;9199;48.832;9.182;2023-12-04T02:01:50;23.20;;;11.43;;
18146;SDS011;9199;48.832;9.182;2023-12-04T02:04:17;25.77;;;11.85;;
18146;SDS011;9199;48.832;9.182;2023-12-04T02:06:44;24.58;;;11.73;;
18146;SDS011;9199;48.832;9.182;2023-12-04T02:09:11;23.80;;;11.55;;
18146;SDS011;9199;48.832;9.182;2023-12-04T02:11:41;24.40;;;11.48;;
18146;SDS011;9199;48.832;9.182;2023-12-04T02:14:09;23.65;;;11.40;;
18146;SDS011;9199;48.832;9.182;2023-12-04T02:16:36;22.50;;;10.60;;
18146;SDS011;9199;48.832;9.182;2023-12-04T02:19:06;25.23;;;11.43;;
18146;SDS011;9199;48.832;9.182;2023-12-04T02:21:34;23.40;;;10.93;;
18146;SDS011;9199;48.832;9.182;2023-12-04T02:24:02;26.10;;;11.90;;
18146;SDS011;9199;48.832;9.182;2023-12-04T02:26:32;24.60;;;11.88;;
18146;SDS011;9199;48.832;9.182;2023-12-04T02:29:07;25.77;;;12.10;;
18146;SDS011;9199;48.832;9.182;2023-12-04T02:31:37;23.08;;;11.73;;
18146;SDS011;9199;48.832;9.182;2023-12-04T02:34:06;25.10;;;12.07;;
18146;SDS011;9199;48.832;9.182;2023-12-04T02:36:35;27.85;;;12.50;;
18146;SDS011;9199;48.832;9.182;2023-12-04T02:39:04;27.52;;;12.30;;
18146;SDS011;9199;48.832;9.182;2023-12-04T02:41:31;26.85;;;12.73;;
18146;SDS011;9199;48.832;9.182;2023-12-04T02:43:57;27.35;;;13.30;;
18146;SDS011;9199;48.832;9.182;2023-12-04T02:46:24;25.85;;;12.20;;
18146;SDS011;9199;48.832;9.182;2023-12-04T02:48:51;24.65;;;12.25;;
18146;SDS011;9199;48.832;9.182;2023-12-04T02:51:18;25.23;;;12.23;;
18146;SDS011;9199;48.832;9.182;2023-12-04T02:53:45;29.38;;;12.55;;
18146;SDS011;9199;48.832;9.182;2023-12-04T02:56:13;25.80;;;11.93;;
18146;SDS011;9199;48.832;9.182;2023-12-04T02:58:39;24.23;;;12.02;;
18146;SDS011;9199;48.832;9.182;2023-12-04T03:01:06;23.70;;;11.05;;
18146;SDS011;9199;48.832;9.182;2023-12-04T03:03:33;26.60;;;11.57;;
18146;SDS011;9199;48.832;9.182;2023-12-04T03:06:00;23.63;;;12.02;;
18146;SDS011;9199;48.832;9.182;2023-12-04T03:08:26;24.38;;;10.98;;
18146;SDS011;9199;48.832;9.182;2023-12-04T03:10:53;25.85;;;12.27;;
18146;SDS011;9199;48.832;9.182;2023-12-04T03:13:21;24.30;;;11.68;;
18146;SDS011;9199;48.832;9.182;2023-12-04T03:15:48;24.85;;;11.55;;
18146;SDS011;9199;48.832;9.182;2023-12-04T03:18:14;27.17;;;11.65;;
18146;SDS011;9199;48.832;9.182;2023-12-04T03:20:41;25.88;;;11.40;;
18146;SDS011;9199;48.832;9.182;2023-12-04T03:23:08;25.15;;;12.25;;
18146;SDS011;9199;48.832;9.182;2023-12-04T03:25:34;23.33;;;11.75;;
18146;SDS011;9199;48.832;9.182;2023-12-04T03:28:01;25.77;;;11.43;;
18146;SDS011;9199;48.832;9.182;2023-12-04T03:30:29;27.88;;;12.82;;
18146;SDS011;9199;48.832;9.182;2023-12-04T03:32:56;26.15;;;12.02;;
18146;SDS011;9199;48.832;9.182;2023-12-04T03:35:22;27.63;;;11.77;;
18146;SDS011;9199;48.832;9.182;2023-12-04T03:37:49;25.55;;;11.77;;
18146;SDS011;9199;48.832;9.182;2023-12-04T03:40:16;24.40;;;11.70;;
18146;SDS011;9199;48.832;9.182;2023-12-04T03:42:43;27.88;;;11.80;;
18146;SDS011;9199;48.832;9.182;2023-12-04T03:45:09;22.85;;;10.90;;
18146;SDS011;9199;48.832;9.182;2023-12-04T03:47:37;23.67;;;11.48;;
18146;SDS011;9199;48.832;9.182;2023-12-04T03:50:05;23.10;;;10.80;;
18146;SDS011;9199;48.832;9.182;2023-12-04T03:52:32;25.77;;;11.57;;
18146;SDS011;9199;48.832;9.182;2023-12-04T03:54:58;26.08;;;10.60;;
18146;SDS011;9199;48.832;9.182;2023-12-04T03:57:25;25.88;;;11.68;;
18146;SDS011;9199;48.832;9.182;2023-12-04T03:59:52;24.35;;;11.07;;
18146;SDS011;9199;48.832;9.182;2023-12-04T04:02:18;24.20;;;11.77;;
18146;SDS011;9199;48.832;9.182;2023-12-04T04:04:46;28.35;;;12.40;;
18146;SDS011;9199;48.832;9.182;2023-12-04T04:07:15;26.70;;;12.02;;
18146;SDS011;9199;48.832;9.182;2023-12-04T04:09:42;26.33;;;11.82;;
18146;SDS011;9199;48.832;9.182;2023-12-04T04:12:09;26.25;;;11.48;;
18146;SDS011;9199;48.832;9.182;2023-12-04T04:14:36;27.08;;;11.80;;
18146;SDS011;9199;48.832;9.182;2023-12-04T04:17:03;24.95;;;11.05;;
18146;SDS011;9199;48.832;9.182;2023-12-04T04:19:30;28.48;;;11.85;;
18146;SDS011;9199;48.832;9.182;2023-12-04T04:21:58;22.42;;;10.88;;
18146;SDS011;9199;48.832;9.182;2023-12-04T04:24:25;23.05;;;11.00;;
18146;SDS011;9199;48.832;9.182;2023-12-04T04:26:52;24.65;;;11.07;;
18146;SDS011;9199;48.832;9.182;2023-12-04T04:29:19;21.60;;;10.13;;
18146;SDS011;9199;48.832;9.182;2023-12-04T04:31:46;22.50;;;10.45;;
18146;SDS011;9199;48.832;9.182;2023-12-04T04:34:12;23.00;;;10.75;;
18146;SDS011;9199;48.832;9.182;2023-12-04T04:36:39;21.13;;;10.38;;
18146;SDS011;9199;48.832;9.182;2023-12-04T04:39:07;23.67;;;10.63;;
18146;SDS011;9199;48.832;9.182;2023-12-04T04:41:35;25.73;;;11.65;;
18146;SDS011;9199;48.832;9.182;2023-12-04T04:44:02;23.98;;;11.05;;
18146;SDS011;9199;48.832;9.182;2023-12-04T04:46:29;23.00;;;10.68;;
18146;SDS011;9199;48.832;9.182;2023-12-04T04:48:56;25.15;;;11.02;;
18146;SDS011;9199;48.832;9.182;2023-12-04T04:51:23;22.58;;;11.57;;
18146;SDS011;9199;48.832;9.182;2023-12-04T04:53:49;22.02;;;10.68;;
18146;SDS011;9199;48.832;9.182;2023-12-04T04:56:18;21.80;;;10.85;;
18146;SDS011;9199;48.832;9.182;2023-12-04T04:58:44;24.30;;;11.32;;
18146;SDS011;9199;48.832;9.182;2023-12-04T05:01:11;20.13;;;10.43;;
18146;SDS011;9199;48.832;9.182;2023-12-04T05:03:38;20.20;;;9.88;;
18146;SDS011;9199;48.832;9.182;2023-12-04T05:06:05;22.33;;;10.82;;
18146;SDS011;9199;48.832;9.182;2023-12-04T05:08:32;21.58;;;10.02;;
18146;SDS011;9199;48.832;9.182;2023-12-04T05:11:00;18.77;;;8.85;;
18146;SDS011;9199;48.832;9.182;2023-12-04T05:13:28;18.40;;;8.88;;
18146;SDS011;9199;48.832;9.182;2023-12-04T05:15:54;18.98;;;8.90;;
18146;SDS011;9199;48.832;9.182;2023-12-04T05:18:21;16.95;;;8.07;;
18146;SDS011;9199;48.832;9.182;2023-12-04T05:20:48;19.10;;;9.35;;
18146;SDS011;9199;48.832;9.182;2023-12-04T05:23:15;19.75;;;10.15;;
18146;SDS011;9199;48.832;9.182;2023-12-04T05:25:42;22.00;;;9.70;;
18146;SDS011;9199;48.832;9.182;2023-12-04T05:28:08;20.92;;;10.18;;
18146;SDS011;9199;48.832;9.182;2023-12-04T05:30:36;19.75;;;8.77;;
18146;SDS011;9199;48.832;9.182;2023-12-04T05:33:03;18.63;;;8.75;;
18146;SDS011;9199;48.832;9.182;2023-12-04T05:35:30;18.73;;;8.85;;
18146;SDS011;9199;48.832;9.182;2023-12-04T05:37:59;21.25;;;9.10;;
18146;SDS011;9199;48.832;9.182;2023-12-04T05:40:26;19.05;;;9.55;;
18146;SDS011;9199;48.832;9.182;2023-12-04T05:42:52;17.02;;;8.38;;
18146;SDS011;9199;48.832;9.182;2023-12-04T05:45:19;18.60;;;9.25;;
18146;SDS011;9199;48.832;9.182;2023-12-04T05:47:47;21.02;;;9.10;;
18146;SDS011;9199;48.832;9.182;2023-12-04T05:50:14;21.98;;;9.70;;
18146;SDS011;9199;48.832;9.182;2023-12-04T05:52:41;22.67;;;10.13;;
18146;SDS011;9199;48.832;9.182;2023-12-04T05:55:08;18.65;;;8.90;;
18146;SDS011;9199;48.832;9.182;2023-12-04T05:57:35;21.00;;;10.30;;
18146;SDS011;9199;48.832;9.182;2023-12-04T06:00:04;22.38;;;9.55;;
18146;SDS011;9199;48.832;9.182;2023-12-04T06:02:37;23.80;;;9.60;;
18146;SDS011;9199;48.832;9.182;2023-12-04T06:05:05;22.33;;;10.60;;
18146;SDS011;9199;48.832;9.182;2023-12-04T06:07:33;20.77;;;10.45;;
18146;SDS011;9199;48.832;9.182;2023-12-04T06:10:00;19.80;;;9.55;;
18146;SDS011;9199;48.832;9.182;2023-12-04T06:12:26;19.48;;;9.60;;
18146;SDS011;9199;48.832;9.182;2023-12-04T06:14:53;18.95;;;9.35;;
18146;SDS011;9199;48.832;9.182;2023-12-04T06:17:20;22.02;;;9.05;;
18146;SDS011;9199;48.832;9.182;2023-12-04T06:19:46;19.83;;;9.27;;
18146;SDS011;9199;48.832;9.182;2023-12-04T06:22:15;18.48;;;9.00;;
18146;SDS011;9199;48.832;9.182;2023-12-04T06:24:45;16.95;;;8.40;;
18146;SDS011;9199;48.832;9.182;2023-12-04T06:27:13;21.50;;;9.57;;
18146;SDS011;9199;48.832;9.182;2023-12-04T06:29:42;18.90;;;9.60;;
18146;SDS011;9199;48.832;9.182;2023-12-04T06:32:10;18.73;;;9.13;;
18146;SDS011;9199;48.832;9.182;2023-12-04T06:34:38;19.42;;;9.48;;
18146;SDS011;9199;48.832;9.182;2023-12-04T06:37:06;17.75;;;8.88;;
18146;SDS011;9199;48.832;9.182;2023-12-04T06:39:38;16.02;;;8.15;;
18146;SDS011;9199;48.832;9.182;2023-12-04T06:42:06;20.45;;;9.60;;
18146;SDS011;9199;48.832;9.182;2023-12-04T06:44:34;20.60;;;8.95;;
18146;SDS011;9199;48.832;9.182;2023-12-04T06:47:01;17.27;;;8.60;;
18146;SDS011;9199;48.832;9.182;2023-12-04T06:49:29;21.05;;;8.40;;
18146;SDS011;9199;48.832;9.182;2023-12-04T06:51:57;19.05;;;9.00;;
18146;SDS011;9199;48.832;9.182;2023-12-04T06:54:25;20.48;;;8.73;;
18146;SDS011;9199;48.832;9.182;2023-12-04T06:56:53;17.50;;;9.60;;
18146;SDS011;9199;48.832;9.182;2023-12-04T06:59:20;21.70;;;9.05;;
18146;SDS011;9199;48.832;9.182;2023-12-04T07:01:47;18.55;;;9.05;;
18146;SDS011;9199;48.832;9.182;2023-12-04T07:04:14;17.85;;;9.07;;
18146;SDS011;9199;48.832;9.182;2023-12-04T07:06:45;20.40;;;9.38;;
18146;SDS011;9199;48.832;9.182;2023-12-04T07:09:12;20.60;;;8.80;;
18146;SDS011;9199;48.832;9.182;2023-12-04T07:11:39;21.10;;;9.63;;
18146;SDS011;9199;48.832;9.182;2023-12-04T07:14:10;22.65;;;9.23;;
18146;SDS011;9199;48.832;9.182;2023-12-04T07:16:40;20.63;;;9.13;;
18146;SDS011;9199;48.832;9.182;2023-12-04T07:19:07;19.85;;;8.93;;
18146;SDS011;9199;48.832;9.182;2023-12-04T07:21:34;20.20;;;9.32;;
18146;SDS011;9199;48.832;9.182;2023-12-04T07:24:01;18.83;;;9.10;;
18146;SDS011;9199;48.832;9.182;2023-12-04T07:26:28;20.70;;;8.88;;
18146;SDS011;9199;48.832;9.182;2023-12-04T07:28:56;19.58;;;8.80;;
18146;SDS011;9199;48.832;9.182;2023-12-04T07:31:24;18.58;;;9.10;;
18146;SDS011;9199;48.832;9.182;2023-12-04T07:33:52;19.48;;;8.95;;
18146;SDS011;9199;48.832;9.182;2023-12-04T07:36:18;22.95;;;9.02;;
18146;SDS011;9199;48.832;9.182;2023-12-04T07:38:45;18.63;;;8.63;;
18146;SDS011;9199;48.832;9.182;2023-12-04T07:41:12;19.92;;;8.88;;
18146;SDS011;9199;48.832;9.182;2023-12-04T07:43:40;17.38;;;8.70;;
18146;SDS011;9199;48.832;9.182;2023-12-04T07:46:08;20.60;;;8.90;;
18146;SDS011;9199;48.832;9.182;2023-12-04T07:48:37;20.75;;;9.10;;
18146;SDS011;9199;48.832;9.182;2023-12-04T07:51:05;17.80;;;8.27;;
18146;SDS011;9199;48.832;9.182;2023-12-04T07:53:32;16.95;;;8.25;;
18146;SDS011;9199;48.832;9.182;2023-12-04T07:56:00;19.95;;;8.45;;
18146;SDS011;9199;48.832;9.182;2023-12-04T07:58:29;19.95;;;9.50;;
18146;SDS011;9199;48.832;9.182;2023-12-04T08:00:57;21.65;;;9.57;;
18146;SDS011;9199;48.832;9.182;2023-12-04T08:03:24;19.25;;;9.18;;
18146;SDS011;9199;48.832;9.182;2023-12-04T08:05:52;19.38;;;9.30;;
18146;SDS011;9199;48.832;9.182;2023-12-04T08:08:19;19.50;;;9.50;;
18146;SDS011;9199;48.832;9.182;2023-12-04T08:10:47;18.40;;;8.55;;
18146;SDS011;9199;48.832;9.182;2023-12-04T08:13:13;17.52;;;8.27;;
18146;SDS011;9199;48.832;9.182;2023-12-04T08:15:41;16.40;;;8.27;;
18146;SDS011;9199;48.832;9.182;2023-12-04T08:18:07;19.38;;;8.73;;
18146;SDS011;9199;48.832;9.182;2023-12-04T08:20:34;17.15;;;8.23;;
18146;SDS011;9199;48.832;9.182;2023-12-04T08:23:02;17.42;;;8.77;;
18146;SDS011;9199;48.832;9.182;2023-12-04T08:25:30;16.80;;;8.30;;
18146;SDS011;9199;48.832;9.182;2023-12-04T08:27:57;15.88;;;7.50;;
18146;SDS011;9199;48.832;9.182;2023-12-04T08:30:25;16.00;;;8.05;;
18146;SDS011;9199;48.832;9.182;2023-12-04T08:32:53;17.75;;;8.77;;
18146;SDS011;9199;48.832;9.182;2023-12-04T08:35:19;16.63;;;8.38;;
18146;SDS011;9199;48.832;9.182;2023-12-04T08:37:47;16.85;;;8.32;;
18146;SDS011;9199;48.832;9.182;2023-12-04T08:40:15;17.38;;;7.97;;
18146;SDS011;9199;48.832;9.182;2023-12-04T08:42:42;17.23;;;8.48;;
18146;SDS011;9199;48.832;9.182;2023-12-04T08:45:10;17.25;;;8.32;;
18146;SDS011;9199;48.832;9.182;2023-12-04T08:47:37;17.60;;;8.57;;
18146;SDS011;9199;48.832;9.182;2023-12-04T08:50:04;15.77;;;8.10;;
18146;SDS011;9199;48.832;9.182;2023-12-04T08:52:31;15.68;;;8.10;;
18146;SDS011;9199;48.832;9.182;2023-12-04T08:54:59;18.65;;;8.75;;
18146;SDS011;9199;48.832;9.182;2023-12-04T08:57:27;16.08;;;8.50;;
18146;SDS011;9199;48.832;9.182;2023-12-04T08:59:53;16.53;;;8.20;;
18146;SDS011;9199;48.832;9.182;2023-12-04T09:02:20;19.50;;;8.60;;
18146;SDS011;9199;48.832;9.182;2023-12-04T09:04:47;17.23;;;8.95;;
18146;SDS011;9199;48.832;9.182;2023-12-04T09:07:13;18.90;;;9.00;;
18146;SDS011;9199;48.832;9.182;2023-12-04T09:09:40;17.58;;;8.38;;
18146;SDS011;9199;48.832;9.182;2023-12-04T09:12:09;17.52;;;9.20;;
18146;SDS011;9199;48.832;9.182;2023-12-04T09:14:37;17.50;;;8.85;;
18146;SDS011;9199;48.832;9.182;2023-12-04T09:17:04;16.02;;;8.23;;
18146;SDS011;9199;48.832;9.182;2023-12-04T09:19:30;18.15;;;8.90;;
18146;SDS011;9199;48.832;9.182;2023-12-04T09:21:57;16.00;;;8.88;;
18146;SDS011;9199;48.832;9.182;2023-12-04T09:24:24;17.88;;;8.93;;
18146;SDS011;9199;48.832;9.182;2023-12-04T09:26:52;17.38;;;8.68;;
18146;SDS011;9199;48.832;9.182;2023-12-04T09:29:19;18.65;;;8.80;;
18146;SDS011;9199;48.832;9.182;2023-12-04T09:31:50;16.17;;;8.65;;
18146;SDS011;9199;48.832;9.182;2023-12-04T09:34:17;17.05;;;9.20;;
18146;SDS011;9199;48.832;9.182;2023-12-04T09:36:45;17.00;;;8.02;;
18146;SDS011;9199;48.832;9.182;2023-12-04T09:39:11;16.92;;;8.70;;
18146;SDS011;9199;48.832;9.182;2023-12-04T09:41:38;16.83;;;8.95;;
18146;SDS011;9199;48.832;9.182;2023-12-04T09:44:07;16.35;;;8.27;;
18146;SDS011;9199;48.832;9.182;2023-12-04T09:46:34;16.60;;;8.88;;
18146;SDS011;9199;48.832;9.182;2023-12-04T09:49:03;17.00;;;8.32;;
18146;SDS011;9199;48.832;9.182;2023-12-04T09:51:31;18.08;;;9.40;;
18146;SDS011;9199;48.832;9.182;2023-12-04T09:53:59;16.50;;;8.40;;
18146;SDS011;9199;48.832;9.182;2023-12-04T09:56:29;17.05;;;8.57;;
18146;SDS011;9199;48.832;9.182;2023-12-04T09:58:57;17.13;;;8.40;;
18146;SDS011;9199;48.832;9.182;2023-12-04T10:01:26;17.08;;;8.85;;
18146;SDS011;9199;48.832;9.182;2023-12-04T10:03:55;18.20;;;8.70;;
18146;SDS011;9199;48.832;9.182;2023-12-04T10:06:24;18.98;;;9.43;;
18146;SDS011;9199;48.832;9.182;2023-12-04T10:08:54;21.45;;;9.25;;
18146;SDS011;9199;48.832;9.182;2023-12-04T10:11:22;21.48;;;8.48;;
18146;SDS011;9199;48.832;9.182;2023-12-04T10:13:49;18.65;;;8.98;;
18146;SDS011;9199;48.832;9.182;2023-12-04T10:16:28;17.10;;;8.52;;
18146;SDS011;9199;48.832;9.182;2023-12-04T10:18:58;19.10;;;8.65;;
18146;SDS011;9199;48.832;9.182;2023-12-04T10:21:41;19.17;;;9.38;;
18146;SDS011;9199;48.832;9.182;2023-12-04T10:24:08;17.30;;;8.45;;
18146;SDS011;9199;48.832;9.182;2023-12-04T10:26:35;17.88;;;8.93;;
18146;SDS011;9199;48.832;9.182;2023-12-04T10:29:03;18.10;;;9.02;;
18146;SDS011;9199;48.832;9.182;2023-12-04T10:31:34;20.85;;;9.55;;
18146;SDS011;9199;48.832;9.182;2023-12-04T10:34:01;20.02;;;9.20;;
18146;SDS011;9199;48.832;9.182;2023-12-04T10:36:29;18.08;;;9.40;;
18146;SDS011;9199;48.832;9.182;2023-12-04T10:39:01;18.85;;;9.75;;
18146;SDS011;9199;48.832;9.182;2023-12-04T10:41:29;17.50;;;9.13;;
18146;SDS011;9199;48.832;9.182;2023-12-04T10:43:56;18.58;;;10.13;;
18146;SDS011;9199;48.832;9.182;2023-12-04T10:46:26;19.52;;;9.07;;
18146;SDS011;9199;48.832;9.182;2023-12-04T10:48:53;19.92;;;9.27;;
18146;SDS011;9199;48.832;9.182;2023-12-04T10:51:20;22.88;;;9.27;;
18146;SDS011;9199;48.832;9.182;2023-12-04T10:53:48;19.70;;;9.55;;
18146;SDS011;9199;48.832;9.182;2023-12-04T10:56:18;19.23;;;9.38;;
18146;SDS011;9199;48.832;9.182;2023-12-04T10:58:46;20.50;;;9.13;;
18146;SDS011;9199;48.832;9.182;2023-12-04T11:01:16;18.02;;;9.18;;
18146;SDS011;9199;48.832;9.182;2023-12-04T11:03:47;19.67;;;9.83;;
18146;SDS011;9199;48.832;9.182;2023-12-04T11:06:16;18.55;;;9.77;;
18146;SDS011;9199;48.832;9.182;2023-12-04T11:08:44;18.42;;;10.05;;
18146;SDS011;9199;48.832;9.182;2023-12-04T11:11:18;18.63;;;9.18;;
18146;SDS011;9199;48.832;9.182;2023-12-04T11:13:50;19.65;;;8.63;;
18146;SDS011;9199;48.832;9.182;2023-12-04T11:16:20;21.30;;;9.23;;
18146;SDS011;9199;48.832;9.182;2023-12-04T11:19:03;18.45;;;8.60;;
18146;SDS011;9199;48.832;9.182;2023-12-04T11:21:37;19.98;;;9.65;;
18146;SDS011;9199;48.832;9.182;2023-12-04T11:24:06;18.60;;;9.32;;
18146;SDS011;9199;48.832;9.182;2023-12-04T11:26:34;21.45;;;9.60;;
18146;SDS011;9199;48.832;9.182;2023-12-04T11:29:02;16.85;;;8.38;;
18146;SDS011;9199;48.832;9.182;2023-12-04T11:31:29;15.75;;;8.48;;
18146;SDS011;9199;48.832;9.182;2023-12-04T11:34:00;17.15;;;8.93;;
18146;SDS011;9199;48.832;9.182;2023-12-04T11:36:28;15.15;;;8.45;;
18146;SDS011;9199;48.832;9.182;2023-12-04T11:38:55;18.95;;;9.45;;
18146;SDS011;9199;48.832;9.182;2023-12-04T11:41:23;18.00;;;9.53;;
18146;SDS011;9199;48.832;9.182;2023-12-04T11:43:52;20.55;;;9.13;;
18146;SDS011;9199;48.832;9.182;2023-12-04T11:46:21;17.52;;;9.57;;
18146;SDS011;9199;48.832;9.182;2023-12-04T11:48:48;16.85;;;8.80;;
18146;SDS011;9199;48.832;9.182;2023-12-04T11:51:44;16.58;;;8.43;;
18146;SDS011;9199;48.832;9.182;2023-12-04T11:54:16;16.95;;;8.68;;
18146;SDS011;9199;48.832;9.182;2023-12-04T11:56:55;17.75;;;8.90;;
18146;SDS011;9199;48.832;9.182;2023-12-04T11:59:25;16.83;;;9.32;;
18146;SDS011;9199;48.832;9.182;2023-12-04T12:01:53;17.52;;;8.88;;
18146;SDS011;9199;48.832;9.182;2023-12-04T12:04:22;17.58;;;8.77;;
18146;SDS011;9199;48.832;9.182;2023-12-04T12:06:49;19.90;;;8.43;;
18146;SDS011;9199;48.832;9.182;2023-12-04T12:09:16;15.48;;;8.63;;
18146;SDS011;9199;48.832;9.182;2023-12-04T12:11:44;17.40;;;9.35;;
18146;SDS011;9199;48.832;9.182;2023-12-04T12:14:11;15.75;;;8.52;;
18146;SDS011;9199;48.832;9.182;2023-12-04T12:16:39;16.20;;;8.68;;
18146;SDS011;9199;48.832;9.182;2023-12-04T12:19:06;15.43;;;8.77;;
18146;SDS011;9199;48.832;9.182;2023-12-04T12:21:33;19.50;;;8.35;;
18146;SDS011;9199;48.832;9.182;2023-12-04T12:24:00;15.38;;;8.52;;
18146;SDS011;9199;48.832;9.182;2023-12-04T12:26:27;15.35;;;8.70;;
18146;SDS011;9199;48.832;9.182;2023-12-04T12:28:55;18.05;;;8.18;;
18146;SDS011;9199;48.832;9.182;2023-12-04T12:31:22;16.90;;;8.33;;
18146;SDS011;9199;48.832;9.182;2023-12-04T12:33:50;17.58;;;8.32;;
18146;SDS011;9199;48.832;9.182;2023-12-04T12:36:17;16.08;;;8.55;;
18146;SDS011;9199;48.832;9.182;2023-12-04T12:38:44;16.05;;;8.70;;
18146;SDS011;9199;48.832;9.182;2023-12-04T12:41:15;14.70;;;8.20;;
18146;SDS011;9199;48.832;9.182;2023-12-04T12:43:42;15.70;;;8.07;;
18146;SDS011;9199;48.832;9.182;2023-12-04T12:46:09;13.18;;;7.53;;
18146;SDS011;9199;48.832;9.182;2023-12-04T12:48:36;14.00;;;8.02;;
18146;SDS011;9199;48.832;9.182;2023-12-04T12:51:05;15.93;;;8.48;;
18146;SDS011;9199;48.832;9.182;2023-12-04T12:53:34;17.48;;;8.57;;
18146;SDS011;9199;48.832;9.182;2023-12-04T12:56:01;15.57;;;7.83;;
18146;SDS011;9199;48.832;9.182;2023-12-04T12:58:28;15.05;;;7.80;;
18146;SDS011;9199;48.832;9.182;2023-12-04T13:00:55;16.75;;;8.40;;
18146;SDS011;9199;48.832;9.182;2023-12-04T13:03:22;17.05;;;8.85;;
18146;SDS011;9199;48.832;9.182;2023-12-04T13:05:49;18.42;;;9.45;;
18146;SDS011;9199;48.832;9.182;2023-12-04T13:08:17;17.37;;;9.53;;
18146;SDS011;9199;48.832;9.182;2023-12-04T13:10:45;20.90;;;10.02;;
18146;SDS011;9199;48.832;9.182;2023-12-04T13:13:12;18.38;;;10.55;;
18146;SDS011;9199;48.832;9.182;2023-12-04T13:15:39;17.63;;;10.27;;
18146;SDS011;9199;48.832;9.182;2023-12-04T13:18:07;18.83;;;10.20;;
18146;SDS011;9199;48.832;9.182;2023-12-04T13:20:34;25.20;;;12.47;;
18146;SDS011;9199;48.832;9.182;2023-12-04T13:23:01;21.40;;;11.68;;
18146;SDS011;9199;48.832;9.182;2023-12-04T13:25:29;21.05;;;11.77;;
18146;SDS011;9199;48.832;9.182;2023-12-04T13:27:57;19.42;;;10.52;;
18146;SDS011;9199;48.832;9.182;2023-12-04T13:30:24;22.45;;;11.38;;
18146;SDS011;9199;48.832;9.182;2023-12-04T13:32:50;19.60;;;10.87;;
18146;SDS011;9199;48.832;9.182;2023-12-04T13:35:17;20.67;;;12.02;;
18146;SDS011;9199;48.832;9.182;2023-12-04T13:37:44;19.08;;;10.98;;
18146;SDS011;9199;48.832;9.182;2023-12-04T13:40:11;19.35;;;11.23;;
18146;SDS011;9199;48.832;9.182;2023-12-04T13:42:42;20.58;;;11.82;;
18146;SDS011;9199;48.832;9.182;2023-12-04T13:45:26;20.13;;;11.30;;
18146;SDS011;9199;48.832;9.182;2023-12-04T13:47:53;21.45;;;11.55;;
18146;SDS011;9199;48.832;9.182;2023-12-04T13:50:20;20.90;;;11.77;;
18146;SDS011;9199;48.832;9.182;2023-12-04T13:52:47;21.73;;;12.07;;
18146;SDS011;9199;48.832;9.182;2023-12-04T13:55:20;19.70;;;11.35;;
18146;SDS011;9199;48.832;9.182;2023-12-04T13:58:02;18.58;;;10.50;;
18146;SDS011;9199;48.832;9.182;2023-12-04T14:00:35;19.35;;;10.40;;
18146;SDS011;9199;48.832;9.182;2023-12-04T14:03:02;18.13;;;10.20;;
18146;SDS011;9199;48.832;9.182;2023-12-04T14:05:29;19.48;;;10.60;;
18146;SDS011;9199;48.832;9.182;2023-12-04T14:07:56;22.67;;;11.30;;
18146;SDS011;9199;48.832;9.182;2023-12-04T14:10:23;20.90;;;11.43;;
18146;SDS011;9199;48.832;9.182;2023-12-04T14:12:51;23.58;;;12.10;;
18146;SDS011;9199;48.832;9.182;2023-12-04T14:15:19;20.10;;;11.32;;
18146;SDS011;9199;48.832;9.182;2023-12-04T14:17:46;20.80;;;11.38;;
18146;SDS011;9199;48.832;9.182;2023-12-04T14:20:14;23.50;;;11.55;;
18146;SDS011;9199;48.832;9.182;2023-12-04T14:22:43;22.23;;;12.13;;
18146;SDS011;9199;48.832;9.182;2023-12-04T14:25:11;19.13;;;10.85;;
18146;SDS011;9199;48.832;9.182;2023-12-04T14:27:38;25.52;;;11.55;;
18146;SDS011;9199;48.832;9.182;2023-12-04T14:30:06;25.38;;;11.90;;
18146;SDS011;9199;48.832;9.182;2023-12-04T14:32:36;23.60;;;11.70;;
18146;SDS011;9199;48.832;9.182;2023-12-04T14:35:04;24.07;;;11.97;;
18146;SDS011;9199;48.832;9.182;2023-12-04T14:37:32;24.05;;;11.52;;
18146;SDS011;9199;48.832;9.182;2023-12-04T14:39:59;22.13;;;11.25;;
18146;SDS011;9199;48.832;9.182;2023-12-04T14:42:25;21.75;;;12.02;;
18146;SDS011;9199;48.832;9.182;2023-12-04T14:44:53;26.77;;;12.20;;